Time;durP1;ratioP1;P1;durP2;ratioP2;P2;SDS_P1;SDS_P2;PMS_P1;PMS_P2;Temp;Humidity;BMP_temperature;BMP_pressure;BME280_temperature;BME280_humidity;BME280_pressure;Samples;Min_cycle;Max_cycle;Signal;HPM_P1;HPM_P2
2022/08/06 04:00:55;;;;;;;2.63;2.10;;;16.50;96.60;;;;;;5820281;23;20079;-75
2022/08/06 04:03:21;;;;;;;4.97;2.45;;;16.40;96.60;;;;;;4977389;28;20035;-76
2022/08/06 04:05:47;;;;;;;3.53;2.10;;;16.40;97.40;;;;;;4975012;28;20035;-76
2022/08/06 04:08:14;;;;;;;3.65;2.13;;;16.40;97.00;;;;;;4976966;28;20583;-75
2022/08/06 04:10:44;;;;;;;3.13;2.05;;;16.50;96.90;;;;;;4977030;28;20031;-75
2022/08/06 04:13:14;;;;;;;3.58;2.10;;;16.50;96.80;;;;;;4976668;28;20512;-75
2022/08/06 04:15:41;;;;;;;3.08;2.13;;;16.40;96.90;;;;;;4977869;28;20031;-77
2022/08/06 04:18:10;;;;;;;4.28;2.28;;;16.60;96.90;;;;;;4978043;28;20401;-76
2022/08/06 04:20:37;;;;;;;3.67;1.83;;;16.50;96.90;;;;;;4978755;28;20027;-77
2022/08/06 04:23:03;;;;;;;3.88;2.20;;;16.60;97.20;;;;;;4981008;28;20031;-76
2022/08/06 04:25:34;;;;;;;4.97;2.60;;;16.60;96.90;;;;;;4978561;28;20051;-77
2022/08/06 04:28:01;;;;;;;3.08;2.47;;;16.60;97.10;;;;;;4978040;28;20094;-77
2022/08/06 04:30:28;;;;;;;3.67;2.42;;;16.60;97.00;;;;;;4977484;28;20032;-77
2022/08/06 04:32:54;;;;;;;4.15;2.40;;;16.60;97.00;;;;;;4977982;28;20090;-76
2022/08/06 04:35:21;;;;;;;3.95;2.13;;;16.60;96.90;;;;;;4977516;28;20098;-77
2022/08/06 04:37:47;;;;;;;4.65;2.00;;;16.60;96.90;;;;;;4977660;28;20050;-77
2022/08/06 04:40:13;;;;;;;3.03;2.40;;;16.60;97.10;;;;;;4976586;28;20126;-77
2022/08/06 04:42:40;;;;;;;5.18;2.40;;;16.60;97.30;;;;;;4976319;28;20035;-77
2022/08/06 04:45:08;;;;;;;3.20;1.95;;;16.60;97.20;;;;;;4977790;28;20040;-77
2022/08/06 04:47:35;;;;;;;2.90;2.40;;;16.60;97.20;;;;;;4977743;28;20066;-77
2022/08/06 04:50:01;;;;;;;3.45;2.38;;;16.60;97.30;;;;;;4976602;28;20110;-76
2022/08/06 04:52:28;;;;;;;2.90;2.17;;;16.70;97.40;;;;;;4977653;28;20110;-77
2022/08/06 04:54:54;;;;;;;3.10;2.08;;;16.50;97.30;;;;;;4977248;28;20040;-77
2022/08/06 04:57:19;;;;;;;2.78;2.20;;;16.60;97.40;;;;;;4975642;28;20039;-76
2022/08/06 04:59:45;;;;;;;5.18;2.40;;;16.60;97.20;;;;;;4977446;28;20042;-77
2022/08/06 05:02:11;;;;;;;4.10;2.28;;;16.60;97.30;;;;;;4976663;28;20039;-77
2022/08/06 05:04:38;;;;;;;2.72;2.38;;;16.70;97.30;;;;;;4977013;28;20413;-77
2022/08/06 05:07:18;;;;;;;4.88;2.40;;;16.70;97.30;;;;;;4977056;28;20460;-77
2022/08/06 05:09:44;;;;;;;7.65;2.92;;;16.80;97.20;;;;;;4975571;28;20062;-77
2022/08/06 05:12:32;;;;;;;3.33;2.35;;;16.80;97.10;;;;;;4977367;28;20027;-77
2022/08/06 05:15:08;;;;;;;3.03;2.20;;;16.80;97.20;;;;;;4976743;28;20047;-77
2022/08/06 05:17:42;;;;;;;8.50;2.22;;;16.80;97.30;;;;;;4976742;28;20518;-77
2022/08/06 05:20:19;;;;;;;3.00;2.45;;;16.80;97.10;;;;;;4977468;28;20046;-77
2022/08/06 05:22:48;;;;;;;3.65;2.10;;;16.90;97.20;;;;;;4977109;28;20031;-77
2022/08/06 05:25:14;;;;;;;3.85;2.50;;;16.90;97.20;;;;;;4975330;28;20102;-77
2022/08/06 05:27:41;;;;;;;3.00;2.42;;;17.00;97.30;;;;;;4976979;28;20042;-77
2022/08/06 05:30:07;;;;;;;2.83;2.05;;;17.00;96.90;;;;;;4977223;28;20031;-77
2022/08/06 05:32:43;;;;;;;4.25;2.25;;;17.00;96.40;;;;;;4976541;28;20083;-77
2022/08/06 05:35:09;;;;;;;4.43;2.55;;;17.10;96.50;;;;;;4975300;28;20412;-77
2022/08/06 05:37:34;;;;;;;4.35;2.20;;;17.20;96.50;;;;;;4976743;28;20039;-77
2022/08/06 05:40:00;;;;;;;2.85;2.20;;;17.30;96.20;;;;;;4977423;28;20037;-77
2022/08/06 05:42:25;;;;;;;3.15;2.13;;;17.30;95.50;;;;;;4976569;28;20031;-77
2022/08/06 05:44:51;;;;;;;3.72;2.13;;;17.50;95.40;;;;;;4976725;28;20032;-77
2022/08/06 05:47:23;;;;;;;4.65;1.80;;;17.50;95.10;;;;;;4976349;28;20035;-76
2022/08/06 05:49:55;;;;;;;3.00;2.03;;;17.50;95.00;;;;;;4974081;28;20078;-77
2022/08/06 05:52:29;;;;;;;3.60;1.90;;;17.60;94.90;;;;;;4975470;28;20126;-75
2022/08/06 05:55:29;;;;;;;3.25;2.10;;;17.60;94.50;;;;;;4975122;28;20036;-75
2022/08/06 05:57:59;;;;;;;3.72;2.40;;;17.60;94.50;;;;;;4975130;28;20043;-75
2022/08/06 06:00:29;;;;;;;2.38;1.80;;;17.60;94.60;;;;;;4974880;28;20027;-76
2022/08/06 06:02:56;;;;;;;4.03;1.70;;;17.70;94.40;;;;;;4975582;28;20031;-76
2022/08/06 06:05:22;;;;;;;3.13;1.73;;;17.70;94.30;;;;;;4973451;28;20039;-76
2022/08/06 06:07:49;;;;;;;2.35;1.77;;;17.80;93.70;;;;;;4975227;28;20123;-77
2022/08/06 06:10:16;;;;;;;3.55;1.73;;;17.80;93.40;;;;;;4975230;28;20051;-76
2022/08/06 06:12:43;;;;;;;2.65;1.70;;;17.90;93.60;;;;;;4975396;28;20040;-75
2022/08/06 06:15:12;;;;;;;3.35;1.92;;;17.80;93.10;;;;;;4974843;28;20031;-76
2022/08/06 06:17:46;;;;;;;2.67;1.33;;;18.00;93.30;;;;;;4975514;28;20059;-76
2022/08/06 06:20:27;;;;;;;3.38;1.42;;;18.10;92.30;;;;;;4975427;28;20035;-76
2022/08/06 06:23:07;;;;;;;2.83;1.50;;;18.10;92.10;;;;;;4974156;28;20070;-75
2022/08/06 06:25:40;;;;;;;2.22;1.33;;;18.10;91.50;;;;;;4975397;28;20047;-76
2022/08/06 06:28:18;;;;;;;3.03;1.40;;;18.10;91.70;;;;;;4975189;28;20035;-77
2022/08/06 06:31:00;;;;;;;3.42;1.65;;;18.10;91.70;;;;;;4975258;28;20028;-75
2022/08/06 06:33:49;;;;;;;2.22;1.40;;;18.10;92.00;;;;;;4973983;28;20039;-76
2022/08/06 06:36:55;;;;;;;3.45;1.45;;;18.20;91.50;;;;;;4975174;28;20050;-76
2022/08/06 06:39:30;;;;;;;3.63;1.40;;;18.20;91.50;;;;;;4966591;28;20058;-75
2022/08/06 06:42:06;;;;;;;2.55;1.48;;;18.20;91.10;;;;;;4973660;28;20027;-76
2022/08/06 06:44:44;;;;;;;2.83;1.50;;;18.20;91.20;;;;;;4975205;28;20047;-79
2022/08/06 06:47:18;;;;;;;1.60;1.30;;;18.20;91.20;;;;;;4973716;28;20040;-76
2022/08/06 06:49:58;;;;;;;1.95;1.40;;;18.20;91.30;;;;;;4974822;28;20039;-76
2022/08/06 06:52:29;;;;;;;2.45;1.48;;;18.30;91.40;;;;;;4975732;28;20422;-78
2022/08/06 06:55:02;;;;;;;3.22;1.40;;;18.40;91.20;;;;;;4975794;28;20568;-75
2022/08/06 06:57:32;;;;;;;2.65;1.50;;;18.40;91.10;;;;;;4975616;28;20042;-80
2022/08/06 07:00:01;;;;;;;2.38;1.52;;;18.40;91.30;;;;;;4974620;28;20034;-74
2022/08/06 07:02:31;;;;;;;2.13;1.27;;;18.60;91.00;;;;;;4975224;28;20039;-79
2022/08/06 07:05:02;;;;;;;2.58;1.45;;;18.70;90.80;;;;;;4978036;28;20035;-75
2022/08/06 07:07:30;;;;;;;3.10;1.40;;;18.80;90.80;;;;;;4979704;28;20589;-74
2022/08/06 07:09:57;;;;;;;1.63;1.20;;;18.70;90.70;;;;;;4978216;28;20568;-76
2022/08/06 07:12:24;;;;;;;1.98;1.50;;;18.70;90.50;;;;;;4978027;28;20074;-76
2022/08/06 07:14:53;;;;;;;1.63;1.33;;;19.00;90.30;;;;;;4978551;28;20034;-75
2022/08/06 07:17:20;;;;;;;1.85;1.40;;;19.00;90.00;;;;;;4975739;28;20110;-76
2022/08/06 07:19:52;;;;;;;3.22;1.38;;;19.20;88.80;;;;;;4971961;28;20468;-76
2022/08/06 07:22:20;;;;;;;2.13;1.10;;;19.40;87.20;;;;;;4976381;28;20043;-77
2022/08/06 07:24:46;;;;;;;3.15;1.30;;;19.50;85.70;;;;;;4976189;28;20027;-77
2022/08/06 07:27:12;;;;;;;3.72;1.25;;;19.60;85.50;;;;;;4975934;28;20038;-78
2022/08/06 07:29:40;;;;;;;3.60;1.10;;;19.90;84.60;;;;;;4971240;28;20061;-76
2022/08/06 07:32:08;;;;;;;4.55;1.10;;;19.90;83.60;;;;;;4976853;28;20035;-77
2022/08/06 07:34:35;;;;;;;1.25;1.15;;;20.00;82.60;;;;;;4977706;28;20094;-77
2022/08/06 07:37:01;;;;;;;2.80;1.10;;;20.10;81.60;;;;;;4969012;28;20074;-78
2022/08/06 07:39:31;;;;;;;1.55;1.00;;;20.40;81.60;;;;;;4967798;28;20062;-77
2022/08/06 07:42:00;;;;;;;2.50;1.10;;;20.30;81.20;;;;;;4976085;28;20031;-77
2022/08/06 07:44:27;;;;;;;1.75;1.20;;;20.40;82.10;;;;;;4976008;28;20031;-76
2022/08/06 07:46:57;;;;;;;4.30;1.30;;;20.70;80.50;;;;;;4977408;28;20046;-81
2022/08/06 07:49:26;;;;;;;3.13;1.00;;;20.80;80.00;;;;;;4977725;28;20066;-74
2022/08/06 07:51:54;;;;;;;2.05;1.10;;;20.80;79.60;;;;;;4977349;28;20489;-74
2022/08/06 07:54:23;;;;;;;2.95;1.08;;;21.20;77.70;;;;;;4975571;28;20043;-73
2022/08/06 07:56:49;;;;;;;2.97;1.15;;;21.10;77.50;;;;;;4976980;28;20094;-73
2022/08/06 07:59:15;;;;;;;1.95;1.15;;;21.40;77.40;;;;;;4975969;28;20035;-75
2022/08/06 08:01:42;;;;;;;1.77;0.90;;;21.70;75.70;;;;;;4975341;28;20031;-76
2022/08/06 08:07:02;;;;;;;1.63;1.08;;;21.80;73.90;;;;;;4977334;28;20031;-75
2022/08/06 08:09:28;;;;;;;3.13;1.10;;;22.00;73.20;;;;;;4966832;28;20039;-75
2022/08/06 08:11:55;;;;;;;2.33;0.93;;;22.20;72.20;;;;;;4971299;28;20032;-82
2022/08/06 08:14:21;;;;;;;3.30;0.88;;;22.40;71.80;;;;;;4969340;28;20039;-74
2022/08/06 08:16:48;;;;;;;2.70;0.90;;;22.10;72.40;;;;;;4964880;28;20493;-73
2022/08/06 08:19:32;;;;;;;3.13;1.10;;;22.00;70.60;;;;;;4967826;28;20039;-72
2022/08/06 08:22:00;;;;;;;2.28;0.98;;;22.20;71.30;;;;;;4967257;28;20033;-72
2022/08/06 08:24:27;;;;;;;1.65;0.90;;;22.50;71.00;;;;;;4965772;28;20102;-73
2022/08/06 08:26:54;;;;;;;3.33;1.00;;;22.60;68.60;;;;;;4964495;28;20106;-72
2022/08/06 08:29:19;;;;;;;2.75;0.80;;;22.90;67.90;;;;;;4956535;28;20528;-73
2022/08/06 08:31:45;;;;;;;3.53;0.93;;;23.20;68.00;;;;;;4956986;28;20063;-72
2022/08/06 08:34:13;;;;;;;3.88;0.80;;;22.90;67.70;;;;;;4956481;28;20398;-74
2022/08/06 08:36:39;;;;;;;1.55;0.75;;;23.30;67.80;;;;;;4955125;28;20040;-72
2022/08/06 08:39:06;;;;;;;0.93;0.70;;;23.50;65.60;;;;;;4955379;28;20040;-72
2022/08/06 08:41:36;;;;;;;2.75;0.90;;;23.50;65.50;;;;;;4955234;28;20524;-72
2022/08/06 08:44:06;;;;;;;2.85;0.80;;;23.30;66.30;;;;;;4956457;28;20043;-73
2022/08/06 08:46:38;;;;;;;2.22;1.10;;;23.30;65.00;;;;;;4957418;28;20085;-78
2022/08/06 08:49:05;;;;;;;1.08;0.80;;;23.30;65.50;;;;;;4957281;28;20040;-78
2022/08/06 08:51:34;;;;;;;2.72;0.93;;;23.30;65.80;;;;;;4955822;28;20175;-78
2022/08/06 08:54:05;;;;;;;5.72;1.10;;;23.40;64.80;;;;;;4956357;28;20458;-77
2022/08/06 08:56:31;;;;;;;1.33;0.93;;;23.60;65.20;;;;;;4955443;28;20526;-73
2022/08/06 08:58:58;;;;;;;2.58;0.93;;;23.50;63.90;;;;;;4956773;28;20055;-74
2022/08/06 09:01:24;;;;;;;3.33;1.05;;;23.60;63.80;;;;;;4955907;28;20035;-74
2022/08/06 09:03:50;;;;;;;1.88;0.80;;;23.60;63.80;;;;;;4956718;28;20038;-74
2022/08/06 09:06:16;;;;;;;2.58;0.90;;;23.90;62.80;;;;;;4956516;28;20047;-78
2022/08/06 09:08:46;;;;;;;1.90;0.65;;;24.20;62.80;;;;;;4955037;28;20040;-73
2022/08/06 09:11:12;;;;;;;3.00;1.00;;;23.90;62.60;;;;;;4956150;28;20032;-73
2022/08/06 09:13:37;;;;;;;2.63;0.73;;;24.10;62.40;;;;;;4956512;28;20048;-73
2022/08/06 09:16:03;;;;;;;1.30;0.80;;;23.90;62.20;;;;;;4954888;28;20032;-73
2022/08/06 09:18:29;;;;;;;2.13;0.80;;;23.90;62.60;;;;;;4956522;28;20402;-73
2022/08/06 09:20:55;;;;;;;3.28;0.90;;;24.10;62.20;;;;;;4956234;28;20143;-73
2022/08/06 09:23:21;;;;;;;2.03;0.60;;;24.20;62.60;;;;;;4956483;28;20095;-78
2022/08/06 09:25:51;;;;;;;3.90;0.85;;;24.20;62.40;;;;;;4955704;28;20035;-74
2022/08/06 09:28:35;;;;;;;2.05;0.85;;;24.30;60.80;;;;;;4956945;28;20058;-78
2022/08/06 09:31:15;;;;;;;4.18;1.00;;;24.50;60.30;;;;;;4966602;28;20037;-72
2022/08/06 09:33:51;;;;;;;1.67;0.82;;;24.30;59.90;;;;;;4975463;28;20031;-75
2022/08/06 09:36:17;;;;;;;2.05;0.90;;;24.40;59.20;;;;;;4973924;28;20504;-78
2022/08/06 09:38:50;;;;;;;3.45;1.10;;;24.40;60.00;;;;;;4975382;28;20050;-76
2022/08/06 09:41:18;;;;;;;1.80;1.05;;;24.30;60.30;;;;;;4970593;28;20027;-78
2022/08/06 09:43:45;;;;;;;3.10;0.85;;;24.40;60.50;;;;;;4966018;28;20110;-78
2022/08/06 09:46:11;;;;;;;2.90;0.85;;;24.70;59.60;;;;;;4973847;28;20046;-78
2022/08/06 09:48:36;;;;;;;2.42;0.85;;;25.10;60.10;;;;;;4975932;28;20043;-79
2022/08/06 09:51:03;;;;;;;2.08;1.10;;;25.10;58.40;;;;;;4976556;28;20047;-76
2022/08/06 09:53:29;;;;;;;2.00;0.80;;;25.40;57.40;;;;;;4975549;28;20126;-79
2022/08/06 09:55:56;;;;;;;1.38;0.90;;;24.90;57.40;;;;;;4973309;28;20046;-74
2022/08/06 09:58:35;;;;;;;3.17;1.00;;;24.60;59.50;;;;;;4975570;28;20454;-74
2022/08/06 10:01:21;;;;;;;2.72;0.75;;;24.80;59.80;;;;;;4974836;28;20485;-74
2022/08/06 10:03:48;;;;;;;1.92;0.85;;;25.20;58.30;;;;;;4973656;28;20054;-75
2022/08/06 10:06:20;;;;;;;2.97;0.70;;;25.70;57.30;;;;;;4973520;28;20042;-74
2022/08/06 10:08:50;;;;;;;4.57;1.25;;;26.20;56.30;;;;;;4974860;28;20031;-76
2022/08/06 10:11:35;;;;;;;1.55;0.65;;;26.50;55.90;;;;;;4974564;28;20465;-75
2022/08/06 10:14:01;;;;;;;3.35;0.75;;;26.70;55.30;;;;;;4974161;28;20063;-77
2022/08/06 10:16:27;;;;;;;1.92;0.80;;;26.40;55.40;;;;;;4987512;23;20084;-72
2022/08/06 10:18:53;;;;;;;1.35;0.73;;;26.40;55.40;;;;;;4955741;28;20083;-72
2022/08/06 10:21:25;;;;;;;2.08;0.80;;;26.50;55.40;;;;;;4956148;28;20115;-73
2022/08/06 10:23:53;;;;;;;0.70;0.70;;;26.40;55.70;;;;;;4956024;28;20107;-72
2022/08/06 10:26:27;;;;;;;2.25;1.52;;;26.20;55.30;;;;;;4955078;28;20039;-73
2022/08/06 10:28:54;;;;;;;1.52;0.88;;;26.30;55.20;;;;;;4955714;28;20502;-73
2022/08/06 10:31:21;;;;;;;2.92;0.88;;;26.50;55.10;;;;;;4954011;28;20035;-73
2022/08/06 10:34:06;;;;;;;1.60;0.70;;;26.40;55.20;;;;;;4955675;28;20040;-72
2022/08/06 10:36:35;;;;;;;1.52;0.80;;;26.30;55.40;;;;;;4955648;28;20032;-73
2022/08/06 10:39:02;;;;;;;1.58;0.88;;;26.20;55.00;;;;;;4958445;28;20474;-73
2022/08/06 10:41:29;;;;;;;2.55;0.82;;;26.10;55.00;;;;;;4958810;28;20565;-73
2022/08/06 10:43:55;;;;;;;2.90;0.80;;;26.40;54.60;;;;;;4958602;28;20043;-73
2022/08/06 10:46:21;;;;;;;1.05;0.73;;;26.50;55.50;;;;;;4958905;28;20484;-73
2022/08/06 10:48:48;;;;;;;1.30;0.77;;;26.50;54.10;;;;;;4957411;28;20036;-73
2022/08/06 10:51:15;;;;;;;2.55;1.10;;;26.90;54.80;;;;;;4958895;28;20095;-73
2022/08/06 10:53:43;;;;;;;2.83;0.77;;;27.30;54.50;;;;;;4958862;28;20502;-73
2022/08/06 10:56:11;;;;;;;4.45;0.90;;;27.70;52.70;;;;;;4957900;28;20075;-73
2022/08/06 10:58:38;;;;;;;4.70;1.20;;;27.60;52.50;;;;;;4957198;28;20126;-74
2022/08/06 11:01:16;;;;;;;1.25;0.70;;;27.50;52.40;;;;;;4958717;28;20035;-73
2022/08/06 11:03:50;;;;;;;2.70;0.80;;;27.10;53.20;;;;;;4958506;28;20036;-73
2022/08/06 11:06:54;;;;;;;2.03;0.70;;;27.30;53.80;;;;;;4958268;28;20042;-72
2022/08/06 11:09:41;;;;;;;3.42;0.85;;;27.00;54.20;;;;;;4958741;28;20036;-74
2022/08/06 11:12:31;;;;;;;1.25;0.80;;;27.20;52.60;;;;;;4958491;28;20032;-72
2022/08/06 11:14:58;;;;;;;4.00;0.70;;;27.60;52.40;;;;;;4957555;28;20493;-73
2022/08/06 11:17:24;;;;;;;1.20;0.73;;;27.50;52.60;;;;;;4958334;28;20040;-72
2022/08/06 11:19:50;;;;;;;1.33;0.70;;;27.30;53.00;;;;;;4958328;28;20043;-72
2022/08/06 11:22:36;;;;;;;2.72;1.00;;;27.30;52.90;;;;;;4958521;28;20064;-78
2022/08/06 11:25:05;;;;;;;2.40;0.70;;;27.20;52.60;;;;;;4958139;28;20090;-71
2022/08/06 11:27:56;;;;;;;2.00;0.80;;;27.00;51.40;;;;;;4957699;28;20043;-72
2022/08/06 11:30:42;;;;;;;2.40;0.70;;;27.20;52.50;;;;;;4958368;28;20035;-72
2022/08/06 11:33:12;;;;;;;4.22;0.93;;;27.60;51.40;;;;;;4973505;28;20095;-73
2022/08/06 11:35:40;;;;;;;1.92;0.70;;;28.00;50.20;;;;;;4976448;28;20031;-72
2022/08/06 11:38:08;;;;;;;2.13;0.70;;;27.80;51.90;;;;;;4977045;28;20039;-72
2022/08/06 11:40:54;;;;;;;1.27;0.70;;;27.80;51.00;;;;;;4977236;28;20111;-72
2022/08/06 11:43:40;;;;;;;2.72;0.82;;;28.10;50.70;;;;;;4977066;28;20038;-71
2022/08/06 11:46:25;;;;;;;2.20;0.75;;;28.20;49.50;;;;;;4978465;28;20039;-72
2022/08/06 11:49:00;;;;;;;3.30;0.90;;;28.20;50.50;;;;;;4976843;28;20039;-72
2022/08/06 11:51:40;;;;;;;3.05;0.80;;;28.60;51.10;;;;;;4977075;28;20446;-72
2022/08/06 11:54:10;;;;;;;0.82;0.70;;;29.00;49.20;;;;;;4976851;28;20039;-74
2022/08/06 11:56:56;;;;;;;2.80;0.90;;;28.80;48.50;;;;;;4975225;28;20027;-74
2022/08/06 11:59:22;;;;;;;0.95;0.70;;;29.20;49.30;;;;;;4976342;28;20047;-74
2022/08/06 12:01:48;;;;;;;2.22;0.70;;;29.30;48.90;;;;;;4976973;28;20038;-73
2022/08/06 12:04:35;;;;;;;3.80;0.70;;;29.30;47.50;;;;;;4976722;28;20391;-73
2022/08/06 12:07:20;;;;;;;5.35;0.90;;;29.30;49.00;;;;;;4976609;28;20031;-73
2022/08/06 12:10:10;;;;;;;2.83;0.70;;;29.30;48.80;;;;;;4975273;28;20497;-74
2022/08/06 12:12:40;;;;;;;1.35;0.60;;;29.50;47.40;;;;;;4975990;28;20567;-74
2022/08/06 12:15:12;;;;;;;2.00;0.70;;;29.40;47.80;;;;;;4976345;28;20170;-73
2022/08/06 12:17:53;;;;;;;4.40;0.65;;;29.70;48.60;;;;;;4976612;28;20919;-73
2022/08/06 12:20:37;;;;;;;2.10;0.75;;;29.70;47.20;;;;;;4976823;28;20039;-73
2022/08/06 12:23:09;;;;;;;2.42;0.90;;;29.50;48.50;;;;;;4976601;28;20041;-72
2022/08/06 12:25:46;;;;;;;2.70;0.85;;;29.70;47.10;;;;;;4976375;28;20556;-73
2022/08/06 12:28:15;;;;;;;1.25;0.80;;;30.10;47.10;;;;;;4976757;28;20125;-72
2022/08/06 12:30:51;;;;;;;5.55;0.90;;;30.20;47.20;;;;;;4976625;28;20043;-75
2022/08/06 12:33:18;;;;;;;1.65;0.65;;;30.10;46.80;;;;;;4976503;28;20587;-75
2022/08/06 12:36:02;;;;;;;2.38;0.80;;;29.90;46.50;;;;;;4974659;28;20035;-72
2022/08/06 12:38:31;;;;;;;2.67;0.93;;;29.60;46.30;;;;;;4976595;28;20039;-72
2022/08/06 12:41:05;;;;;;;3.08;0.70;;;29.70;46.80;;;;;;4976661;28;20035;-72
2022/08/06 12:43:31;;;;;;;4.10;0.70;;;30.00;47.50;;;;;;4976741;28;20047;-74
2022/08/06 12:46:05;;;;;;;4.43;0.80;;;30.40;46.60;;;;;;4974749;28;20035;-73
2022/08/06 12:48:32;;;;;;;2.47;1.20;;;30.60;45.90;;;;;;4976598;28;20039;-73
2022/08/06 12:51:05;;;;;;;2.08;0.60;;;30.30;46.30;;;;;;4976436;28;20505;-73
2022/08/06 12:53:31;;;;;;;4.57;0.80;;;30.10;46.40;;;;;;4976431;28;20043;-73
2022/08/06 12:55:57;;;;;;;4.20;0.82;;;29.70;45.40;;;;;;4976020;28;20039;-72
2022/08/06 12:58:30;;;;;;;0.70;0.57;;;29.10;46.80;;;;;;4976339;28;20046;-72
2022/08/06 13:00:57;;;;;;;2.40;0.70;;;29.60;47.60;;;;;;4975469;28;20054;-72
2022/08/06 13:03:25;;;;;;;1.65;0.82;;;29.60;45.70;;;;;;4976109;28;20042;-72
2022/08/06 13:05:52;;;;;;;3.75;0.63;;;29.50;48.10;;;;;;4974069;28;20122;-72
2022/08/06 13:08:19;;;;;;;3.58;0.70;;;29.60;48.20;;;;;;4974369;28;20046;-71
2022/08/06 13:10:52;;;;;;;2.08;0.63;;;29.60;47.10;;;;;;4976066;28;20497;-72
2022/08/06 13:13:19;;;;;;;3.40;0.75;;;30.00;47.90;;;;;;4975909;28;20051;-72
2022/08/06 13:16:02;;;;;;;5.63;0.70;;;30.30;45.30;;;;;;4974867;28;20512;-72
2022/08/06 13:18:28;;;;;;;4.32;0.70;;;29.70;46.10;;;;;;4976070;28;20039;-72
2022/08/06 13:20:54;;;;;;;0.57;0.57;;;30.00;45.50;;;;;;4976079;28;20035;-76
2022/08/06 13:23:34;;;;;;;1.15;0.70;;;30.40;45.70;;;;;;4975795;28;20524;-72
2022/08/06 13:26:12;;;;;;;3.13;0.70;;;30.40;45.00;;;;;;4975403;28;20035;-73
2022/08/06 13:28:38;;;;;;;2.42;0.80;;;30.60;45.80;;;;;;4974453;28;20038;-72
2022/08/06 13:31:19;;;;;;;1.67;0.60;;;30.60;44.10;;;;;;4976170;28;20062;-72
2022/08/06 13:34:06;;;;;;;1.50;0.65;;;30.70;43.90;;;;;;4975787;28;20039;-72
2022/08/06 13:36:36;;;;;;;2.05;0.95;;;31.30;43.60;;;;;;4975481;28;20047;-72
2022/08/06 13:39:17;;;;;;;1.42;0.60;;;32.00;43.50;;;;;;4975712;28;20462;-73
2022/08/06 13:41:43;;;;;;;0.98;0.68;;;32.20;40.90;;;;;;4975804;28;20087;-72
2022/08/06 13:44:26;;;;;;;1.33;0.70;;;32.40;41.60;;;;;;4975497;28;20043;-72
2022/08/06 13:46:52;;;;;;;3.25;0.73;;;32.70;41.50;;;;;;4975839;28;20039;-72
2022/08/06 13:49:17;;;;;;;1.55;0.68;;;33.50;40.00;;;;;;4975607;28;20090;-73
2022/08/06 13:51:43;;;;;;;1.85;0.60;;;33.50;39.30;;;;;;4975652;28;20043;-72
2022/08/06 13:54:08;;;;;;;3.15;0.82;;;33.80;38.80;;;;;;4975162;28;20067;-72
2022/08/06 13:56:34;;;;;;;1.42;0.60;;;34.00;37.90;;;;;;4975282;28;20434;-72
2022/08/06 13:58:59;;;;;;;1.20;0.63;;;33.60;38.80;;;;;;4975610;28;20039;-72
2022/08/06 14:01:25;;;;;;;2.85;0.70;;;33.70;39.00;;;;;;4975378;28;20039;-72
2022/08/06 14:03:50;;;;;;;3.15;0.80;;;33.90;39.00;;;;;;4975337;28;20461;-73
2022/08/06 14:06:16;;;;;;;0.98;0.52;;;35.40;37.70;;;;;;4975007;28;20035;-73
2022/08/06 14:08:43;;;;;;;1.30;0.80;;;35.30;36.60;;;;;;4975113;28;20393;-73
2022/08/06 14:11:08;;;;;;;2.53;0.65;;;34.90;36.30;;;;;;4975597;28;20035;-73
2022/08/06 14:13:34;;;;;;;1.90;0.82;;;35.80;37.10;;;;;;4978515;28;20039;-73
2022/08/06 14:16:00;;;;;;;1.05;0.70;;;35.90;35.40;;;;;;4977759;28;20043;-73
2022/08/06 14:18:27;;;;;;;1.42;0.70;;;36.40;34.70;;;;;;4978861;28;20035;-73
2022/08/06 14:20:52;;;;;;;0.77;0.60;;;36.90;33.40;;;;;;4978645;28;20505;-73
2022/08/06 14:23:19;;;;;;;2.08;0.73;;;36.90;34.40;;;;;;4977111;28;20061;-71
2022/08/06 14:25:44;;;;;;;1.45;0.75;;;36.60;33.50;;;;;;4978079;28;20038;-71
2022/08/06 14:28:10;;;;;;;3.08;0.82;;;36.80;33.20;;;;;;4978690;28;20536;-71
2022/08/06 14:30:36;;;;;;;0.90;0.70;;;36.90;33.50;;;;;;4978430;28;20499;-71
2022/08/06 14:33:03;;;;;;;2.00;0.73;;;37.00;32.60;;;;;;4978418;28;20039;-71
2022/08/06 14:35:29;;;;;;;2.17;0.70;;;36.60;34.70;;;;;;4977843;28;20031;-71
2022/08/06 14:37:55;;;;;;;3.33;0.88;;;36.60;33.80;;;;;;4978329;28;20042;-71
2022/08/06 14:45:50;;;;;;;2.67;0.75;;;37.30;32.80;;;;;;4977916;28;20074;-73
2022/08/06 14:48:15;;;;;;;1.88;0.80;;;37.90;32.50;;;;;;4978682;28;20031;-72
2022/08/06 14:50:41;;;;;;;4.30;0.75;;;38.70;31.70;;;;;;4978388;28;20059;-71
2022/08/06 14:53:07;;;;;;;0.75;0.60;;;39.10;30.60;;;;;;4976577;28;20134;-71
2022/08/06 14:55:33;;;;;;;3.30;0.93;;;39.20;30.00;;;;;;4977662;28;20520;-71
2022/08/06 14:57:58;;;;;;;1.02;0.80;;;39.60;30.50;;;;;;4978043;28;20114;-71
2022/08/06 15:00:24;;;;;;;2.97;0.82;;;39.30;30.10;;;;;;4978216;28;20366;-71
2022/08/06 15:02:51;;;;;;;2.15;0.77;;;39.30;30.20;;;;;;4978102;28;20160;-71
2022/08/06 15:05:16;;;;;;;0.98;0.70;;;39.30;30.30;;;;;;4977751;28;20035;-71
2022/08/06 15:07:42;;;;;;;2.90;0.90;;;39.40;31.10;;;;;;4978132;28;20043;-71
2022/08/06 15:10:09;;;;;;;2.42;0.70;;;38.90;29.50;;;;;;4978175;28;20449;-71
2022/08/06 15:12:35;;;;;;;1.58;0.70;;;38.70;29.90;;;;;;4977869;28;20472;-71
2022/08/06 15:15:01;;;;;;;2.70;0.80;;;39.50;29.60;;;;;;4976847;28;20035;-71
2022/08/06 15:17:29;;;;;;;2.10;0.85;;;39.40;29.20;;;;;;4977884;28;20090;-71
2022/08/06 15:19:54;;;;;;;3.40;0.90;;;39.50;29.30;;;;;;4977802;28;20513;-71
2022/08/06 15:22:20;;;;;;;1.05;0.75;;;39.40;29.70;;;;;;4977603;28;20039;-71
2022/08/06 15:24:45;;;;;;;2.28;0.90;;;38.90;30.40;;;;;;4976798;28;20039;-71
2022/08/06 15:27:11;;;;;;;2.10;0.80;;;38.80;29.80;;;;;;4977435;28;20094;-71
2022/08/06 15:29:36;;;;;;;0.90;0.90;;;39.00;30.00;;;;;;4977921;28;20462;-71
2022/08/06 15:32:02;;;;;;;2.58;0.77;;;39.80;28.90;;;;;;4977637;28;20042;-71
2022/08/06 15:34:28;;;;;;;2.88;0.90;;;39.60;28.40;;;;;;4977159;28;20501;-71
2022/08/06 15:36:55;;;;;;;1.88;0.82;;;40.60;28.70;;;;;;4977777;28;20038;-71
2022/08/06 15:39:20;;;;;;;3.13;0.90;;;41.00;28.20;;;;;;4977493;28;20127;-71
2022/08/06 15:41:46;;;;;;;2.15;1.15;;;40.10;28.40;;;;;;4977380;28;20039;-71
2022/08/06 15:44:12;;;;;;;1.67;0.90;;;40.00;29.10;;;;;;4977288;28;20110;-71
2022/08/06 15:46:38;;;;;;;1.80;0.80;;;40.60;28.50;;;;;;4977435;28;20035;-71
2022/08/06 15:49:05;;;;;;;1.88;0.90;;;41.50;28.50;;;;;;4977328;28;20533;-71
2022/08/06 15:51:31;;;;;;;0.75;0.70;;;41.10;27.60;;;;;;4977373;28;20082;-71
2022/08/06 15:53:57;;;;;;;2.35;0.90;;;41.30;27.70;;;;;;4975477;28;20500;-72
2022/08/06 15:56:25;;;;;;;1.23;0.80;;;41.40;27.70;;;;;;4976671;28;20037;-72
2022/08/06 15:58:53;;;;;;;1.15;0.80;;;40.80;28.10;;;;;;4977177;28;20471;-71
2022/08/06 16:01:18;;;;;;;5.07;1.00;;;40.50;27.40;;;;;;4977267;28;20032;-71
2022/08/06 16:03:44;;;;;;;1.27;0.80;;;41.00;26.90;;;;;;4977630;28;20035;-71
2022/08/06 16:06:10;;;;;;;3.22;1.30;;;41.00;27.70;;;;;;4976586;28;20035;-71
2022/08/06 16:08:37;;;;;;;1.83;0.95;;;40.90;27.30;;;;;;4977254;28;20039;-71
2022/08/06 16:11:03;;;;;;;2.63;0.93;;;41.00;26.80;;;;;;4976818;28;20038;-71
2022/08/06 16:13:28;;;;;;;4.70;0.90;;;40.00;27.50;;;;;;4976942;28;20066;-71
2022/08/06 16:15:54;;;;;;;1.45;0.90;;;40.20;28.00;;;;;;4975140;28;20047;-71
2022/08/06 16:18:21;;;;;;;1.63;0.95;;;40.70;27.60;;;;;;4977052;28;20044;-71
2022/08/06 16:20:47;;;;;;;3.95;1.10;;;40.50;27.30;;;;;;4977050;28;20114;-71
2022/08/06 16:23:15;;;;;;;1.67;0.90;;;39.80;27.80;;;;;;4976780;28;20075;-71
2022/08/06 16:25:41;;;;;;;1.85;0.70;;;41.00;27.60;;;;;;4976276;28;20034;-71
2022/08/06 16:28:08;;;;;;;2.53;0.60;;;41.70;28.10;;;;;;4976691;28;20134;-71
2022/08/06 16:30:35;;;;;;;1.52;0.70;;;40.80;26.60;;;;;;4976746;28;20114;-71
2022/08/06 16:33:01;;;;;;;2.83;0.98;;;39.40;27.00;;;;;;4976610;28;20043;-71
2022/08/06 16:35:27;;;;;;;2.65;0.90;;;39.40;27.70;;;;;;4975264;28;20405;-71
2022/08/06 16:37:53;;;;;;;0.63;0.63;;;39.50;27.70;;;;;;4976714;28;20050;-71
2022/08/06 16:40:21;;;;;;;1.10;0.75;;;38.60;27.90;;;;;;4976336;28;20074;-71
2022/08/06 16:42:47;;;;;;;0.88;0.60;;;37.80;28.50;;;;;;4976367;28;20036;-71
2022/08/06 16:45:13;;;;;;;2.40;0.90;;;36.10;28.90;;;;;;4974651;28;20493;-71
2022/08/06 16:47:39;;;;;;;3.28;0.70;;;34.60;30.20;;;;;;4976314;28;20046;-71
2022/08/06 16:50:06;;;;;;;3.33;0.70;;;32.80;31.10;;;;;;4976604;28;20034;-70
2022/08/06 16:52:31;;;;;;;0.88;0.73;;;31.50;33.30;;;;;;4976811;28;20031;-70
2022/08/06 16:54:57;;;;;;;3.33;0.60;;;30.60;34.30;;;;;;4976094;28;20482;-71
2022/08/06 16:57:22;;;;;;;2.13;0.60;;;30.10;35.20;;;;;;4976499;28;20461;-70
2022/08/06 16:59:48;;;;;;;0.90;0.50;;;30.00;35.90;;;;;;4976540;28;20462;-70
2022/08/06 17:04:57;;;;;;;1.55;0.75;;;29.20;37.00;;;;;;4976261;28;20040;-71
2022/08/06 17:07:23;;;;;;;1.35;0.55;;;28.40;36.80;;;;;;4974746;28;20039;-72
2022/08/06 17:09:49;;;;;;;1.95;1.00;;;28.10;37.60;;;;;;4976331;28;20074;-72
2022/08/06 17:12:14;;;;;;;0.80;0.63;;;27.70;38.30;;;;;;4976372;28;20588;-72